sensor_id;sensor_type;location;lat;lon;timestamp;pressure;altitude;pressure_sealevel;temperature;humidity
19526;BME280;9907;42.676;26.348;2022-07-05T00:00:42;98936.81;;;21.20;58.10
19526;BME280;9907;42.676;26.348;2022-07-05T00:03:07;98942.66;;;21.17;57.15
19526;BME280;9907;42.676;26.348;2022-07-05T00:05:34;98939.28;;;21.15;57.56
19526;BME280;9907;42.676;26.348;2022-07-05T00:07:59;98944.91;;;21.14;57.05
19526;BME280;9907;42.676;26.348;2022-07-05T00:10:25;98931.56;;;21.12;57.44
19526;BME280;9907;42.676;26.348;2022-07-05T00:12:50;98938.03;;;21.11;57.44
19526;BME280;9907;42.676;26.348;2022-07-05T00:15:16;98928.16;;;21.10;56.81
19526;BME280;9907;42.676;26.348;2022-07-05T00:17:42;98934.66;;;21.09;56.73
19526;BME280;9907;42.676;26.348;2022-07-05T00:20:08;98933.00;;;21.08;56.69
19526;BME280;9907;42.676;26.348;2022-07-05T00:22:34;98946.16;;;21.05;57.19
19526;BME280;9907;42.676;26.348;2022-07-05T00:24:59;98934.44;;;21.04;57.68
19526;BME280;9907;42.676;26.348;2022-07-05T00:27:25;98938.19;;;21.03;57.11
19526;BME280;9907;42.676;26.348;2022-07-05T00:29:50;98939.63;;;20.99;56.74
19526;BME280;9907;42.676;26.348;2022-07-05T00:32:16;98933.19;;;21.00;57.46
19526;BME280;9907;42.676;26.348;2022-07-05T00:34:41;98926.91;;;20.93;56.92
19526;BME280;9907;42.676;26.348;2022-07-05T00:37:07;98926.47;;;20.96;57.50
19526;BME280;9907;42.676;26.348;2022-07-05T00:39:32;98932.75;;;20.97;56.93
19526;BME280;9907;42.676;26.348;2022-07-05T00:41:58;98925.44;;;20.97;57.01
19526;BME280;9907;42.676;26.348;2022-07-05T00:44:34;98925.44;;;20.97;57.45
19526;BME280;9907;42.676;26.348;2022-07-05T00:47:01;98922.72;;;20.97;57.96
19526;BME280;9907;42.676;26.348;2022-07-05T00:49:28;98925.66;;;20.96;58.10
19526;BME280;9907;42.676;26.348;2022-07-05T00:51:54;98918.13;;;20.91;57.43
19526;BME280;9907;42.676;26.348;2022-07-05T00:54:19;98912.72;;;20.91;57.71
19526;BME280;9907;42.676;26.348;2022-07-05T00:56:45;98908.94;;;20.92;57.26
19526;BME280;9907;42.676;26.348;2022-07-05T00:59:11;98907.28;;;20.91;57.41
19526;BME280;9907;42.676;26.348;2022-07-05T01:01:36;98907.47;;;20.89;58.00
19526;BME280;9907;42.676;26.348;2022-07-05T01:04:02;98903.06;;;20.88;58.13
19526;BME280;9907;42.676;26.348;2022-07-05T01:06:27;98905.19;;;20.86;57.64
19526;BME280;9907;42.676;26.348;2022-07-05T01:08:53;98897.66;;;20.82;57.26
19526;BME280;9907;42.676;26.348;2022-07-05T01:11:19;98891.78;;;20.78;57.46
19526;BME280;9907;42.676;26.348;2022-07-05T01:13:45;98890.13;;;20.77;56.90
19526;BME280;9907;42.676;26.348;2022-07-05T01:16:13;98893.06;;;20.76;56.79
19526;BME280;9907;42.676;26.348;2022-07-05T01:18:38;98893.88;;;20.76;57.28
19526;BME280;9907;42.676;26.348;2022-07-05T01:21:04;98888.25;;;20.78;57.02
19526;BME280;9907;42.676;26.348;2022-07-05T01:23:31;98882.63;;;20.79;57.00
19526;BME280;9907;42.676;26.348;2022-07-05T01:25:58;98883.47;;;20.80;56.82
19526;BME280;9907;42.676;26.348;2022-07-05T01:28:25;98889.69;;;20.80;57.13
19526;BME280;9907;42.676;26.348;2022-07-05T01:30:51;98888.88;;;20.80;56.63
19526;BME280;9907;42.676;26.348;2022-07-05T01:33:17;98889.31;;;20.83;56.85
19526;BME280;9907;42.676;26.348;2022-07-05T01:35:42;98888.47;;;20.83;57.51
19526;BME280;9907;42.676;26.348;2022-07-05T01:38:10;98899.31;;;20.83;57.18
19526;BME280;9907;42.676;26.348;2022-07-05T01:40:36;98893.06;;;20.82;56.75
19526;BME280;9907;42.676;26.348;2022-07-05T01:43:02;98895.13;;;20.80;57.20
19526;BME280;9907;42.676;26.348;2022-07-05T01:45:28;98895.34;;;20.79;57.02
19526;BME280;9907;42.676;26.348;2022-07-05T01:48:12;98892.41;;;20.80;57.24
19526;BME280;9907;42.676;26.348;2022-07-05T01:51:05;98882.81;;;20.78;57.71
19526;BME280;9907;42.676;26.348;2022-07-05T01:53:31;98880.09;;;20.78;57.60
19526;BME280;9907;42.676;26.348;2022-07-05T01:56:00;98880.50;;;20.75;57.39
19526;BME280;9907;42.676;26.348;2022-07-05T01:58:27;98875.50;;;20.72;57.33
19526;BME280;9907;42.676;26.348;2022-07-05T02:00:55;98880.50;;;20.75;58.23
19526;BME280;9907;42.676;26.348;2022-07-05T02:03:22;98883.41;;;20.73;57.81
19526;BME280;9907;42.676;26.348;2022-07-05T02:05:48;98878.84;;;20.74;57.84
19526;BME280;9907;42.676;26.348;2022-07-05T02:08:15;98882.63;;;20.73;58.31
19526;BME280;9907;42.676;26.348;2022-07-05T02:10:42;98872.78;;;20.72;59.01
19526;BME280;9907;42.676;26.348;2022-07-05T02:13:08;98871.09;;;20.71;58.94
19526;BME280;9907;42.676;26.348;2022-07-05T02:15:35;98876.13;;;20.74;58.89
19526;BME280;9907;42.676;26.348;2022-07-05T02:18:02;98875.69;;;20.77;59.00
19526;BME280;9907;42.676;26.348;2022-07-05T02:20:29;98869.25;;;20.78;58.96
19526;BME280;9907;42.676;26.348;2022-07-05T02:22:55;98867.56;;;20.77;59.37
19526;BME280;9907;42.676;26.348;2022-07-05T02:25:21;98877.19;;;20.79;59.75
19526;BME280;9907;42.676;26.348;2022-07-05T02:27:47;98881.34;;;20.75;59.68
19526;BME280;9907;42.676;26.348;2022-07-05T02:30:13;98876.75;;;20.76;59.48
19526;BME280;9907;42.676;26.348;2022-07-05T02:32:39;98865.50;;;20.72;59.62
19526;BME280;9907;42.676;26.348;2022-07-05T02:35:05;98881.97;;;20.71;59.74
19526;BME280;9907;42.676;26.348;2022-07-05T02:37:32;98880.09;;;20.71;59.55
19526;BME280;9907;42.676;26.348;2022-07-05T02:39:57;98875.50;;;20.72;59.88
19526;BME280;9907;42.676;26.348;2022-07-05T02:42:23;98872.97;;;20.70;60.48
19526;BME280;9907;42.676;26.348;2022-07-05T02:44:48;98875.91;;;20.69;60.19
19526;BME280;9907;42.676;26.348;2022-07-05T02:47:14;98885.09;;;20.68;59.93
19526;BME280;9907;42.676;26.348;2022-07-05T02:49:39;98892.59;;;20.66;59.52
19526;BME280;9907;42.676;26.348;2022-07-05T02:52:05;98882.78;;;20.65;59.75
19526;BME280;9907;42.676;26.348;2022-07-05T02:54:30;98888.00;;;20.66;59.46
19526;BME280;9907;42.676;26.348;2022-07-05T02:56:56;98888.66;;;20.68;59.43
19526;BME280;9907;42.676;26.348;2022-07-05T02:59:21;98895.94;;;20.68;59.01
19526;BME280;9907;42.676;26.348;2022-07-05T03:01:47;98890.53;;;20.68;58.85
19526;BME280;9907;42.676;26.348;2022-07-05T03:04:12;98898.25;;;20.71;59.23
19526;BME280;9907;42.676;26.348;2022-07-05T03:06:38;98893.47;;;20.73;59.76
19526;BME280;9907;42.676;26.348;2022-07-05T03:09:04;98891.38;;;20.75;59.33
19526;BME280;9907;42.676;26.348;2022-07-05T03:11:30;98901.81;;;20.78;59.93
19526;BME280;9907;42.676;26.348;2022-07-05T03:13:56;98895.13;;;20.80;60.54
19526;BME280;9907;42.676;26.348;2022-07-05T03:16:21;98896.81;;;20.81;60.50
19526;BME280;9907;42.676;26.348;2022-07-05T03:18:49;98893.91;;;20.83;60.40
19526;BME280;9907;42.676;26.348;2022-07-05T03:21:14;98891.78;;;20.85;59.89
19526;BME280;9907;42.676;26.348;2022-07-05T03:23:40;98896.41;;;20.91;58.71
19526;BME280;9907;42.676;26.348;2022-07-05T03:26:06;98894.97;;;21.02;58.58
19526;BME280;9907;42.676;26.348;2022-07-05T03:28:31;98897.28;;;21.11;58.63
19526;BME280;9907;42.676;26.348;2022-07-05T03:30:57;98903.13;;;21.21;58.90
19526;BME280;9907;42.676;26.348;2022-07-05T03:33:23;98895.19;;;21.33;58.29
19526;BME280;9907;42.676;26.348;2022-07-05T03:35:48;98898.56;;;21.42;58.08
19526;BME280;9907;42.676;26.348;2022-07-05T03:38:14;98900.00;;;21.51;58.39
19526;BME280;9907;42.676;26.348;2022-07-05T03:40:39;98898.31;;;21.63;58.61
19526;BME280;9907;42.676;26.348;2022-07-05T03:43:05;98889.94;;;21.71;58.15
19526;BME280;9907;42.676;26.348;2022-07-05T03:45:30;98888.47;;;21.75;57.88
19526;BME280;9907;42.676;26.348;2022-07-05T03:48:00;98888.03;;;21.78;58.33
19526;BME280;9907;42.676;26.348;2022-07-05T03:50:26;98883.25;;;21.80;58.77
19526;BME280;9907;42.676;26.348;2022-07-05T03:52:52;98889.91;;;21.84;57.43
19526;BME280;9907;42.676;26.348;2022-07-05T03:55:18;98894.94;;;21.87;57.02
19526;BME280;9907;42.676;26.348;2022-07-05T03:57:43;98892.44;;;21.92;56.88
19526;BME280;9907;42.676;26.348;2022-07-05T04:00:09;98888.25;;;21.96;55.63
19526;BME280;9907;42.676;26.348;2022-07-05T04:02:35;98896.59;;;22.01;53.59
19526;BME280;9907;42.676;26.348;2022-07-05T04:05:01;98903.94;;;21.94;49.86
19526;BME280;9907;42.676;26.348;2022-07-05T04:07:26;98905.59;;;21.82;50.47
19526;BME280;9907;42.676;26.348;2022-07-05T04:09:52;98896.19;;;21.78;50.75
19526;BME280;9907;42.676;26.348;2022-07-05T04:12:17;98902.69;;;21.77;51.05
19526;BME280;9907;42.676;26.348;2022-07-05T04:14:43;98896.41;;;21.83;52.60
19526;BME280;9907;42.676;26.348;2022-07-05T04:17:08;98905.59;;;22.02;53.21
19526;BME280;9907;42.676;26.348;2022-07-05T04:19:34;98897.34;;;22.21;53.49
19526;BME280;9907;42.676;26.348;2022-07-05T04:21:59;98901.88;;;22.41;52.67
19526;BME280;9907;42.676;26.348;2022-07-05T04:24:25;98900.97;;;22.60;53.46
19526;BME280;9907;42.676;26.348;2022-07-05T04:26:51;98897.41;;;22.59;53.37
19526;BME280;9907;42.676;26.348;2022-07-05T04:29:16;98897.31;;;22.79;52.33
19526;BME280;9907;42.676;26.348;2022-07-05T04:31:41;98888.59;;;22.95;50.94
19526;BME280;9907;42.676;26.348;2022-07-05T04:34:08;98895.81;;;23.14;50.99
19526;BME280;9907;42.676;26.348;2022-07-05T04:36:33;98895.22;;;23.37;49.99
19526;BME280;9907;42.676;26.348;2022-07-05T04:38:59;98891.16;;;23.71;49.62
19526;BME280;9907;42.676;26.348;2022-07-05T04:41:24;98887.06;;;23.98;47.96
19526;BME280;9907;42.676;26.348;2022-07-05T04:43:50;98882.03;;;24.20;48.25
19526;BME280;9907;42.676;26.348;2022-07-05T04:46:15;98879.34;;;24.50;48.21
19526;BME280;9907;42.676;26.348;2022-07-05T04:48:41;98880.00;;;24.63;46.96
19526;BME280;9907;42.676;26.348;2022-07-05T04:51:06;98879.72;;;24.83;46.63
19526;BME280;9907;42.676;26.348;2022-07-05T04:53:32;98882.53;;;25.06;46.95
19526;BME280;9907;42.676;26.348;2022-07-05T04:55:57;98883.41;;;25.18;47.15
19526;BME280;9907;42.676;26.348;2022-07-05T04:58:23;98885.09;;;25.43;47.04
19526;BME280;9907;42.676;26.348;2022-07-05T05:00:48;98881.69;;;25.59;47.09
19526;BME280;9907;42.676;26.348;2022-07-05T05:03:14;98883.09;;;25.73;45.81
19526;BME280;9907;42.676;26.348;2022-07-05T05:05:39;98884.66;;;25.92;45.72
19526;BME280;9907;42.676;26.348;2022-07-05T05:08:05;98889.63;;;26.19;45.14
19526;BME280;9907;42.676;26.348;2022-07-05T05:10:30;98891.03;;;26.33;45.17
19526;BME280;9907;42.676;26.348;2022-07-05T05:12:56;98893.22;;;26.59;43.96
19526;BME280;9907;42.676;26.348;2022-07-05T05:15:21;98894.56;;;26.85;42.89
19526;BME280;9907;42.676;26.348;2022-07-05T05:17:47;98896.28;;;27.19;43.27
19526;BME280;9907;42.676;26.348;2022-07-05T05:20:15;98901.25;;;27.39;42.47
19526;BME280;9907;42.676;26.348;2022-07-05T05:22:41;98908.13;;;27.53;42.02
19526;BME280;9907;42.676;26.348;2022-07-05T05:25:08;98895.47;;;27.69;40.94
19526;BME280;9907;42.676;26.348;2022-07-05T05:27:33;98910.25;;;27.84;40.87
19526;BME280;9907;42.676;26.348;2022-07-05T05:29:59;98911.81;;;27.97;40.03
19526;BME280;9907;42.676;26.348;2022-07-05T05:32:25;98909.56;;;28.11;39.75
19526;BME280;9907;42.676;26.348;2022-07-05T05:34:50;98916.66;;;28.28;40.42
19526;BME280;9907;42.676;26.348;2022-07-05T05:37:16;98911.97;;;28.67;39.93
19526;BME280;9907;42.676;26.348;2022-07-05T05:39:41;98915.88;;;28.98;39.16
19526;BME280;9907;42.676;26.348;2022-07-05T05:42:07;98909.94;;;29.33;38.67
19526;BME280;9907;42.676;26.348;2022-07-05T05:44:33;98911.69;;;29.44;37.67
19526;BME280;9907;42.676;26.348;2022-07-05T05:46:58;98910.44;;;29.62;36.84
19526;BME280;9907;42.676;26.348;2022-07-05T05:49:23;98907.38;;;29.90;36.58
19526;BME280;9907;42.676;26.348;2022-07-05T05:51:49;98907.47;;;30.05;36.53
19526;BME280;9907;42.676;26.348;2022-07-05T05:54:14;98914.44;;;30.18;36.36
19526;BME280;9907;42.676;26.348;2022-07-05T05:56:40;98916.78;;;30.46;36.33
19526;BME280;9907;42.676;26.348;2022-07-05T05:59:05;98914.66;;;30.58;35.49
19526;BME280;9907;42.676;26.348;2022-07-05T06:01:31;98907.81;;;30.76;35.31
19526;BME280;9907;42.676;26.348;2022-07-05T06:03:56;98914.22;;;30.91;34.92
19526;BME280;9907;42.676;26.348;2022-07-05T06:06:22;98915.91;;;31.03;34.71
19526;BME280;9907;42.676;26.348;2022-07-05T06:08:47;98917.59;;;31.14;34.20
19526;BME280;9907;42.676;26.348;2022-07-05T06:11:13;98908.22;;;31.25;35.46
19526;BME280;9907;42.676;26.348;2022-07-05T06:13:39;98909.63;;;31.48;34.15
19526;BME280;9907;42.676;26.348;2022-07-05T06:16:08;98906.06;;;31.57;33.44
19526;BME280;9907;42.676;26.348;2022-07-05T06:18:33;98908.81;;;31.77;32.86
19526;BME280;9907;42.676;26.348;2022-07-05T06:20:59;98913.47;;;32.02;33.46
19526;BME280;9907;42.676;26.348;2022-07-05T06:23:24;98914.25;;;32.33;33.08
19526;BME280;9907;42.676;26.348;2022-07-05T06:25:50;98907.53;;;32.59;33.09
19526;BME280;9907;42.676;26.348;2022-07-05T06:28:15;98910.16;;;32.85;32.38
19526;BME280;9907;42.676;26.348;2022-07-05T06:30:41;98904.75;;;33.08;31.39
19526;BME280;9907;42.676;26.348;2022-07-05T06:33:07;98899.94;;;33.29;31.85
19526;BME280;9907;42.676;26.348;2022-07-05T06:35:33;98903.97;;;33.42;28.81
19526;BME280;9907;42.676;26.348;2022-07-05T06:38:03;98909.94;;;33.59;30.81
19526;BME280;9907;42.676;26.348;2022-07-05T06:40:34;98904.00;;;33.75;30.35
19526;BME280;9907;42.676;26.348;2022-07-05T06:43:02;98903.56;;;33.92;30.83
19526;BME280;9907;42.676;26.348;2022-07-05T06:45:28;98902.44;;;33.93;27.60
19526;BME280;9907;42.676;26.348;2022-07-05T06:47:59;98903.75;;;34.01;28.47
19526;BME280;9907;42.676;26.348;2022-07-05T06:50:26;98906.00;;;33.99;28.38
19526;BME280;9907;42.676;26.348;2022-07-05T06:52:53;98904.88;;;34.00;28.88
19526;BME280;9907;42.676;26.348;2022-07-05T06:55:19;98896.66;;;34.18;29.51
19526;BME280;9907;42.676;26.348;2022-07-05T06:57:44;98901.28;;;34.28;27.82
19526;BME280;9907;42.676;26.348;2022-07-05T07:00:11;98909.59;;;34.28;28.09
19526;BME280;9907;42.676;26.348;2022-07-05T07:02:37;98903.41;;;34.36;26.93
19526;BME280;9907;42.676;26.348;2022-07-05T07:05:03;98901.59;;;34.45;28.03
19526;BME280;9907;42.676;26.348;2022-07-05T07:07:31;98899.13;;;34.67;27.93
19526;BME280;9907;42.676;26.348;2022-07-05T07:10:20;98897.88;;;34.97;27.00
19526;BME280;9907;42.676;26.348;2022-07-05T07:12:45;98898.13;;;35.38;26.64
19526;BME280;9907;42.676;26.348;2022-07-05T07:15:11;98899.19;;;36.21;24.68
19526;BME280;9907;42.676;26.348;2022-07-05T07:17:36;98927.00;;;37.38;23.50
19526;BME280;9907;42.676;26.348;2022-07-05T07:20:02;98936.81;;;38.33;23.30
19526;BME280;9907;42.676;26.348;2022-07-05T07:22:28;98913.22;;;38.00;23.86
19526;BME280;9907;42.676;26.348;2022-07-05T07:24:53;98903.09;;;37.60;25.04
19526;BME280;9907;42.676;26.348;2022-07-05T07:27:19;98911.56;;;37.32;24.88
19526;BME280;9907;42.676;26.348;2022-07-05T07:29:45;98915.41;;;37.23;24.55
19526;BME280;9907;42.676;26.348;2022-07-05T07:32:10;98905.72;;;37.20;24.52
19526;BME280;9907;42.676;26.348;2022-07-05T07:34:36;98909.00;;;37.22;23.98
19526;BME280;9907;42.676;26.348;2022-07-05T07:37:02;98912.22;;;37.51;24.85
19526;BME280;9907;42.676;26.348;2022-07-05T07:39:28;98906.38;;;38.06;24.46
19526;BME280;9907;42.676;26.348;2022-07-05T07:41:54;98915.97;;;38.62;23.97
19526;BME280;9907;42.676;26.348;2022-07-05T07:44:19;98912.94;;;38.89;23.95
19526;BME280;9907;42.676;26.348;2022-07-05T07:46:45;98907.06;;;39.33;22.54
19526;BME280;9907;42.676;26.348;2022-07-05T07:49:11;98906.44;;;39.28;21.85
19526;BME280;9907;42.676;26.348;2022-07-05T07:51:38;98910.03;;;39.46;22.19
19526;BME280;9907;42.676;26.348;2022-07-05T07:54:03;98906.09;;;39.47;21.57
19526;BME280;9907;42.676;26.348;2022-07-05T07:56:29;98915.97;;;39.35;21.05
19526;BME280;9907;42.676;26.348;2022-07-05T07:58:54;98912.16;;;39.40;21.28
19526;BME280;9907;42.676;26.348;2022-07-05T08:01:20;98912.84;;;39.37;21.14
19526;BME280;9907;42.676;26.348;2022-07-05T08:03:46;98909.38;;;39.49;22.16
19526;BME280;9907;42.676;26.348;2022-07-05T08:06:12;98907.53;;;39.70;22.16
19526;BME280;9907;42.676;26.348;2022-07-05T08:08:40;98915.78;;;39.83;21.94
19526;BME280;9907;42.676;26.348;2022-07-05T08:11:07;98906.41;;;39.71;21.30
19526;BME280;9907;42.676;26.348;2022-07-05T08:13:34;98910.69;;;39.60;22.13
19526;BME280;9907;42.676;26.348;2022-07-05T08:15:59;98920.41;;;39.54;21.42
19526;BME280;9907;42.676;26.348;2022-07-05T08:18:25;98910.72;;;39.42;21.37
19526;BME280;9907;42.676;26.348;2022-07-05T08:21:10;98906.91;;;39.47;22.20
19526;BME280;9907;42.676;26.348;2022-07-05T08:23:54;98905.41;;;39.67;22.54
19526;BME280;9907;42.676;26.348;2022-07-05T08:26:20;98901.81;;;39.75;22.48
19526;BME280;9907;42.676;26.348;2022-07-05T08:28:45;98893.41;;;39.75;22.75
19526;BME280;9907;42.676;26.348;2022-07-05T08:31:11;98890.63;;;39.75;22.19
19526;BME280;9907;42.676;26.348;2022-07-05T08:33:37;98898.50;;;39.64;22.42
19526;BME280;9907;42.676;26.348;2022-07-05T08:36:03;98897.19;;;39.62;22.86
19526;BME280;9907;42.676;26.348;2022-07-05T08:38:28;98899.00;;;39.66;22.14
19526;BME280;9907;42.676;26.348;2022-07-05T08:40:55;98895.06;;;39.24;23.07
19526;BME280;9907;42.676;26.348;2022-07-05T08:43:24;98900.81;;;39.36;22.87
19526;BME280;9907;42.676;26.348;2022-07-05T08:45:53;98896.41;;;39.27;21.72
19526;BME280;9907;42.676;26.348;2022-07-05T08:48:20;98890.59;;;38.89;22.42
19526;BME280;9907;42.676;26.348;2022-07-05T08:50:46;98890.94;;;38.87;22.66
19526;BME280;9907;42.676;26.348;2022-07-05T08:53:18;98884.38;;;38.83;22.53
19526;BME280;9907;42.676;26.348;2022-07-05T08:55:44;98888.88;;;38.54;22.43
19526;BME280;9907;42.676;26.348;2022-07-05T08:58:11;98887.34;;;38.39;22.20
19526;BME280;9907;42.676;26.348;2022-07-05T09:00:40;98888.88;;;38.54;23.31
19526;BME280;9907;42.676;26.348;2022-07-05T09:03:07;98892.50;;;38.23;20.61
19526;BME280;9907;42.676;26.348;2022-07-05T09:05:42;98896.19;;;37.79;22.00
19526;BME280;9907;42.676;26.348;2022-07-05T09:08:10;98895.22;;;37.84;23.38
19526;BME280;9907;42.676;26.348;2022-07-05T09:10:39;98897.13;;;37.75;23.67
19526;BME280;9907;42.676;26.348;2022-07-05T09:13:06;98901.19;;;37.46;22.14
19526;BME280;9907;42.676;26.348;2022-07-05T09:15:32;98891.81;;;37.42;23.17
19526;BME280;9907;42.676;26.348;2022-07-05T09:17:57;98892.63;;;37.43;23.87
19526;BME280;9907;42.676;26.348;2022-07-05T09:20:26;98891.91;;;37.15;22.22
19526;BME280;9907;42.676;26.348;2022-07-05T09:22:55;98886.59;;;36.91;23.10
19526;BME280;9907;42.676;26.348;2022-07-05T09:27:51;98875.28;;;36.88;24.32
19526;BME280;9907;42.676;26.348;2022-07-05T09:39:15;98878.88;;;34.67;26.59
19526;BME280;9907;42.676;26.348;2022-07-05T10:06:47;98871.53;;;31.70;28.99
19526;BME280;9907;42.676;26.348;2022-07-05T10:13:17;98862.44;;;31.44;29.16
19526;BME280;9907;42.676;26.348;2022-07-05T10:50:16;98828.38;;;30.68;31.38
19526;BME280;9907;42.676;26.348;2022-07-05T10:56:25;98825.63;;;30.58;32.00
19526;BME280;9907;42.676;26.348;2022-07-05T10:59:21;98822.59;;;30.54;34.00
19526;BME280;9907;42.676;26.348;2022-07-05T11:37:28;98799.28;;;30.15;33.07
19526;BME280;9907;42.676;26.348;2022-07-05T11:42:45;98784.94;;;30.13;35.27
19526;BME280;9907;42.676;26.348;2022-07-05T11:45:11;98786.06;;;30.12;33.81
19526;BME280;9907;42.676;26.348;2022-07-05T11:47:37;98786.31;;;30.10;34.37
19526;BME280;9907;42.676;26.348;2022-07-05T11:50:03;98789.63;;;30.07;33.26
19526;BME280;9907;42.676;26.348;2022-07-05T11:52:30;98771.16;;;30.03;32.60
19526;BME280;9907;42.676;26.348;2022-07-05T11:54:58;98767.84;;;30.01;34.46
19526;BME280;9907;42.676;26.348;2022-07-05T11:57:23;98770.03;;;29.99;32.85
19526;BME280;9907;42.676;26.348;2022-07-05T11:59:49;98771.69;;;30.05;33.23
19526;BME280;9907;42.676;26.348;2022-07-05T12:02:16;98762.56;;;29.94;31.88
19526;BME280;9907;42.676;26.348;2022-07-05T12:04:47;98763.94;;;29.91;32.66
19526;BME280;9907;42.676;26.348;2022-07-05T12:07:30;98763.94;;;29.91;33.62
19526;BME280;9907;42.676;26.348;2022-07-05T12:09:57;98758.19;;;29.93;33.36
19526;BME280;9907;42.676;26.348;2022-07-05T12:12:42;98765.59;;;29.92;33.62
19526;BME280;9907;42.676;26.348;2022-07-05T12:15:09;98759.25;;;29.92;33.87
19526;BME280;9907;42.676;26.348;2022-07-05T12:17:36;98763.41;;;29.89;34.20
19526;BME280;9907;42.676;26.348;2022-07-05T12:20:04;98757.31;;;29.87;33.38
19526;BME280;9907;42.676;26.348;2022-07-05T12:22:34;98754.00;;;29.85;33.94
19526;BME280;9907;42.676;26.348;2022-07-05T12:25:01;98744.06;;;29.84;34.02
19526;BME280;9907;42.676;26.348;2022-07-05T12:27:28;98747.06;;;29.83;33.93
19526;BME280;9907;42.676;26.348;2022-07-05T12:29:55;98749.00;;;29.82;34.30
19526;BME280;9907;42.676;26.348;2022-07-05T12:32:21;98737.72;;;29.84;33.91
19526;BME280;9907;42.676;26.348;2022-07-05T12:34:46;98741.63;;;29.88;33.76
19526;BME280;9907;42.676;26.348;2022-07-05T12:37:25;98746.56;;;29.86;33.50
19526;BME280;9907;42.676;26.348;2022-07-05T12:40:04;98740.47;;;29.84;33.87
19526;BME280;9907;42.676;26.348;2022-07-05T12:42:31;98739.09;;;29.81;34.28
19526;BME280;9907;42.676;26.348;2022-07-05T12:45:12;98731.94;;;29.80;34.54
19526;BME280;9907;42.676;26.348;2022-07-05T12:47:52;98723.66;;;29.80;34.63
19526;BME280;9907;42.676;26.348;2022-07-05T12:50:19;98733.03;;;29.84;34.59
19526;BME280;9907;42.676;26.348;2022-07-05T12:55:47;98733.91;;;29.90;34.67
19526;BME280;9907;42.676;26.348;2022-07-05T12:58:32;98728.13;;;29.86;34.89
19526;BME280;9907;42.676;26.348;2022-07-05T13:00:57;98719.53;;;29.83;34.33
19526;BME280;9907;42.676;26.348;2022-07-05T13:03:23;98720.38;;;29.83;34.22
19526;BME280;9907;42.676;26.348;2022-07-05T13:06:02;98715.69;;;29.84;34.86
19526;BME280;9907;42.676;26.348;2022-07-05T13:08:30;98722.59;;;29.81;34.66
19526;BME280;9907;42.676;26.348;2022-07-05T13:10:56;98711.81;;;29.80;34.40
19526;BME280;9907;42.676;26.348;2022-07-05T13:13:21;98703.56;;;29.80;34.72
19526;BME280;9907;42.676;26.348;2022-07-05T13:15:47;98702.19;;;29.82;35.16
19526;BME280;9907;42.676;26.348;2022-07-05T13:18:23;98711.56;;;29.81;35.60
19526;BME280;9907;42.676;26.348;2022-07-05T13:20:49;98704.41;;;29.80;35.15
19526;BME280;9907;42.676;26.348;2022-07-05T13:23:15;98702.81;;;29.89;34.58
19526;BME280;9907;42.676;26.348;2022-07-05T13:25:40;98708.63;;;29.98;34.87
19526;BME280;9907;42.676;26.348;2022-07-05T13:28:06;98695.94;;;29.92;34.60
19526;BME280;9907;42.676;26.348;2022-07-05T13:30:31;98700.88;;;29.90;35.59
19526;BME280;9907;42.676;26.348;2022-07-05T13:32:57;98706.94;;;29.87;35.32
19526;BME280;9907;42.676;26.348;2022-07-05T13:35:22;98696.44;;;29.84;35.53
19526;BME280;9907;42.676;26.348;2022-07-05T13:37:48;98693.44;;;29.90;35.23
19526;BME280;9907;42.676;26.348;2022-07-05T13:40:13;98698.94;;;29.90;35.37
19526;BME280;9907;42.676;26.348;2022-07-05T13:42:39;98695.09;;;29.91;35.57
19526;BME280;9907;42.676;26.348;2022-07-05T13:45:05;98693.44;;;29.90;35.02
19526;BME280;9907;42.676;26.348;2022-07-05T13:47:31;98695.66;;;29.88;35.05
19526;BME280;9907;42.676;26.348;2022-07-05T13:49:56;98695.91;;;29.87;35.55
19526;BME280;9907;42.676;26.348;2022-07-05T13:52:40;98686.25;;;29.84;35.39
19526;BME280;9907;42.676;26.348;2022-07-05T13:55:06;98689.88;;;29.85;34.87
19526;BME280;9907;42.676;26.348;2022-07-05T13:57:32;98681.81;;;29.83;35.98
19526;BME280;9907;42.676;26.348;2022-07-05T13:59:57;98684.06;;;29.86;35.40
19526;BME280;9907;42.676;26.348;2022-07-05T14:02:23;98683.75;;;29.83;35.65
19526;BME280;9907;42.676;26.348;2022-07-05T14:04:48;98676.94;;;29.85;36.16
19526;BME280;9907;42.676;26.348;2022-07-05T14:07:13;98679.69;;;29.85;35.73
19526;BME280;9907;42.676;26.348;2022-07-05T14:09:39;98668.06;;;29.83;35.94
19526;BME280;9907;42.676;26.348;2022-07-05T14:12:05;98671.91;;;29.82;36.11
19526;BME280;9907;42.676;26.348;2022-07-05T14:14:30;98668.06;;;29.83;36.07
19526;BME280;9907;42.676;26.348;2022-07-05T14:16:56;98657.88;;;29.84;35.97
19526;BME280;9907;42.676;26.348;2022-07-05T14:19:21;98667.78;;;29.80;35.83
19526;BME280;9907;42.676;26.348;2022-07-05T14:21:47;98668.63;;;29.80;36.42
19526;BME280;9907;42.676;26.348;2022-07-05T14:24:12;98666.13;;;29.79;35.98
19526;BME280;9907;42.676;26.348;2022-07-05T14:26:38;98666.66;;;29.76;36.26
19526;BME280;9907;42.676;26.348;2022-07-05T14:29:06;98670.25;;;29.76;36.61
19526;BME280;9907;42.676;26.348;2022-07-05T14:31:32;98668.88;;;29.79;36.20
19526;BME280;9907;42.676;26.348;2022-07-05T14:33:57;98664.19;;;29.74;36.02
19526;BME280;9907;42.676;26.348;2022-07-05T14:36:23;98653.72;;;29.71;35.96
19526;BME280;9907;42.676;26.348;2022-07-05T14:38:48;98653.72;;;29.71;36.71
19526;BME280;9907;42.676;26.348;2022-07-05T14:41:14;98658.13;;;29.72;36.64
19526;BME280;9907;42.676;26.348;2022-07-05T14:43:41;98658.66;;;29.69;36.73
19526;BME280;9907;42.676;26.348;2022-07-05T14:46:06;98658.66;;;29.69;36.67
19526;BME280;9907;42.676;26.348;2022-07-05T14:48:33;98659.47;;;29.65;36.59
19526;BME280;9907;42.676;26.348;2022-07-05T14:50:59;98654.25;;;29.63;36.50
19526;BME280;9907;42.676;26.348;2022-07-05T14:53:24;98660.00;;;29.62;36.35
19526;BME280;9907;42.676;26.348;2022-07-05T14:55:50;98647.91;;;29.63;36.63
19526;BME280;9907;42.676;26.348;2022-07-05T14:58:15;98646.81;;;29.59;37.43